createdAt,value
2022-08-08T00:00:52.540Z,59.46
2022-08-08T00:01:08.277Z,63.56
2022-08-08T00:02:33.220Z,63.96
2022-08-08T00:03:13.290Z,64.55
2022-08-08T00:04:06.156Z,63.30
2022-08-08T00:05:09.772Z,61.51
2022-08-08T00:06:05.108Z,64.18
2022-08-08T00:07:08.896Z,65.85
2022-08-08T00:08:06.085Z,64.88
2022-08-08T00:09:07.820Z,66.17
2022-08-08T00:10:05.065Z,64.84
2022-08-08T00:11:07.893Z,61.08
2022-08-08T00:12:09.678Z,63.87
2022-08-08T00:13:06.039Z,59.02
2022-08-08T00:14:14.987Z,61.80
2022-08-08T00:15:06.026Z,61.77
2022-08-08T00:16:05.006Z,61.82
2022-08-08T00:17:05.031Z,62.38
2022-08-08T00:18:05.993Z,65.93
2022-08-08T00:19:05.012Z,62.20
2022-08-08T00:20:04.971Z,67.71
2022-08-08T00:21:06.094Z,64.56
2022-08-08T00:22:04.955Z,65.37
2022-08-08T00:23:06.354Z,63.62
2022-08-08T00:24:04.933Z,63.10
2022-08-08T00:25:04.923Z,64.24
2022-08-08T00:26:04.913Z,65.83
2022-08-08T00:27:05.907Z,63.42
2022-08-08T00:28:04.907Z,60.88
2022-08-08T00:29:08.058Z,64.21
2022-08-08T00:30:04.906Z,57.47
2022-08-08T00:32:29.011Z,63.31
2022-08-08T00:32:29.157Z,67.23
2022-08-08T00:33:05.865Z,64.80
2022-08-08T00:34:17.226Z,64.63
2022-08-08T00:35:05.828Z,62.79
2022-08-08T00:36:04.818Z,62.14
2022-08-08T00:37:08.137Z,62.16
2022-08-08T00:38:06.358Z,66.44
2022-08-08T00:39:04.793Z,65.55
2022-08-08T00:41:07.280Z,64.26
2022-08-08T00:41:09.465Z,64.89
2022-08-08T00:42:08.873Z,62.87
2022-08-08T00:43:11.772Z,63.33
2022-08-08T00:44:05.816Z,66.49
2022-08-08T00:45:04.729Z,64.49
2022-08-08T00:46:05.714Z,59.60
2022-08-08T00:47:14.285Z,64.52
2022-08-08T00:48:06.606Z,62.72
2022-08-08T00:49:05.683Z,63.36
2022-08-08T00:50:05.679Z,66.40
2022-08-08T00:51:04.675Z,65.47
2022-08-08T00:52:04.660Z,65.55
2022-08-08T00:53:04.648Z,65.32
2022-08-08T00:54:15.718Z,67.35
2022-08-08T00:55:05.629Z,65.27
2022-08-08T00:56:04.620Z,63.61
2022-08-08T00:57:05.609Z,64.92
2022-08-08T00:58:04.597Z,64.16
2022-08-08T00:59:05.607Z,63.89
2022-08-08T01:00:04.843Z,65.01
2022-08-08T01:01:04.641Z,64.31
2022-08-08T01:02:04.602Z,62.70
2022-08-08T01:03:57.904Z,65.93
2022-08-08T01:04:05.831Z,63.53
2022-08-08T01:05:05.631Z,66.74
2022-08-08T01:06:04.524Z,64.29
2022-08-08T01:07:06.064Z,62.31
2022-08-08T01:08:04.501Z,63.89
2022-08-08T01:09:35.069Z,64.07
2022-08-08T01:10:06.129Z,63.64
2022-08-08T01:11:06.502Z,62.81
2022-08-08T01:12:04.469Z,64.47
2022-08-08T01:13:04.479Z,62.57
2022-08-08T01:14:04.509Z,65.12
2022-08-08T01:15:06.719Z,63.70
2022-08-08T01:16:04.452Z,65.66
2022-08-08T01:17:04.790Z,66.05
2022-08-08T01:18:04.407Z,66.77
2022-08-08T01:19:13.609Z,64.62
2022-08-08T01:20:05.400Z,64.58
2022-08-08T01:21:04.376Z,66.74
2022-08-08T01:22:13.676Z,68.17
2022-08-08T01:23:05.361Z,64.93
2022-08-08T01:24:13.505Z,63.13
2022-08-08T01:25:05.350Z,65.52
2022-08-08T01:26:11.338Z,65.79
2022-08-08T01:27:07.007Z,62.71
2022-08-08T01:28:05.306Z,63.24
2022-08-08T01:29:05.699Z,66.21
2022-08-08T01:30:04.334Z,67.44
2022-08-08T01:31:05.907Z,64.33
2022-08-08T01:32:15.548Z,63.63
2022-08-08T01:33:16.286Z,65.50
2022-08-08T01:34:05.252Z,63.66
2022-08-08T01:35:11.312Z,66.57
2022-08-08T01:36:05.232Z,68.10
2022-08-08T01:37:05.717Z,63.71
2022-08-08T01:38:04.217Z,66.07
2022-08-08T01:39:04.244Z,63.69
2022-08-08T01:40:04.266Z,68.95
2022-08-08T01:41:04.208Z,65.45
2022-08-08T01:42:04.183Z,64.07
2022-08-08T01:43:04.174Z,66.58
2022-08-08T01:44:04.195Z,65.27
2022-08-08T01:45:04.156Z,66.05
2022-08-08T01:46:04.158Z,63.14
2022-08-08T01:47:59.036Z,64.84
2022-08-08T01:48:16.542Z,64.46
2022-08-08T01:49:10.659Z,61.04
2022-08-08T01:50:05.099Z,61.28
2022-08-08T01:51:06.232Z,63.04
2022-08-08T01:53:01.145Z,64.95
2022-08-08T01:55:16.552Z,64.83
2022-08-08T01:55:16.630Z,65.89
2022-08-08T01:55:46.044Z,62.41
2022-08-08T01:56:31.141Z,64.91
2022-08-08T01:57:05.034Z,63.90
2022-08-08T01:58:10.979Z,63.11
2022-08-08T01:59:05.013Z,64.02
2022-08-08T02:00:04.037Z,63.90
2022-08-08T02:01:04.111Z,63.84
2022-08-08T02:02:07.207Z,63.99
2022-08-08T02:03:04.476Z,64.81
2022-08-08T02:04:04.010Z,63.37
2022-08-08T02:05:03.957Z,65.98
2022-08-08T02:06:03.952Z,64.57
2022-08-08T02:07:04.222Z,66.18
2022-08-08T02:08:03.924Z,63.36
2022-08-08T02:09:17.478Z,61.90
2022-08-08T02:10:11.347Z,65.78
2022-08-08T02:11:05.893Z,63.11
2022-08-08T02:12:03.983Z,64.70
2022-08-08T02:13:03.873Z,64.46
2022-08-08T02:14:03.865Z,65.28
2022-08-08T02:15:03.847Z,65.68
2022-08-08T02:16:03.842Z,64.90
2022-08-08T02:17:03.857Z,65.00
2022-08-08T02:18:04.825Z,64.11
2022-08-08T02:19:10.135Z,66.76
2022-08-08T02:20:09.683Z,64.68
2022-08-08T02:21:08.568Z,64.80
2022-08-08T02:22:04.822Z,65.91
2022-08-08T02:23:03.775Z,62.94
2022-08-08T02:24:03.838Z,65.21
2022-08-08T02:25:07.071Z,65.17
2022-08-08T02:26:04.742Z,63.89
2022-08-08T02:27:03.778Z,63.94
2022-08-08T02:28:03.727Z,66.53
2022-08-08T02:29:03.725Z,65.49
2022-08-08T02:30:03.709Z,65.43
2022-08-08T02:31:04.620Z,63.36
2022-08-08T02:32:04.936Z,66.14
2022-08-08T02:33:03.693Z,64.25
2022-08-08T02:34:08.028Z,64.78
2022-08-08T02:35:10.885Z,64.72
2022-08-08T02:36:05.647Z,67.53
2022-08-08T02:37:03.640Z,66.01
2022-08-08T02:38:05.605Z,67.61
2022-08-08T02:39:41.250Z,66.47
2022-08-08T02:40:04.732Z,65.54
2022-08-08T02:41:07.822Z,64.97
2022-08-08T02:42:07.797Z,67.56
2022-08-08T02:44:37.408Z,66.05
2022-08-08T02:44:42.734Z,64.12
2022-08-08T02:45:04.560Z,68.52
2022-08-08T02:46:04.554Z,62.19
2022-08-08T02:47:03.544Z,64.25
2022-08-08T02:48:03.602Z,66.66
2022-08-08T02:49:03.524Z,66.59
2022-08-08T02:50:03.515Z,66.40
2022-08-08T02:51:03.507Z,65.37
2022-08-08T02:52:35.355Z,65.05
2022-08-08T02:53:05.529Z,65.67
2022-08-08T02:54:03.478Z,63.98
2022-08-08T02:55:03.473Z,64.87
2022-08-08T02:56:03.462Z,65.84
2022-08-08T02:57:03.456Z,64.78
2022-08-08T02:58:04.475Z,64.20
2022-08-08T02:59:05.961Z,65.25
2022-08-08T03:00:26.843Z,64.88
2022-08-08T03:01:04.407Z,65.49
2022-08-08T03:02:03.504Z,64.95
2022-08-08T03:03:03.391Z,64.40
2022-08-08T03:05:04.226Z,65.01
2022-08-08T03:05:10.741Z,68.15
2022-08-08T03:06:07.213Z,66.33
2022-08-08T03:07:06.922Z,67.97
2022-08-08T03:08:03.341Z,67.01
2022-08-08T03:09:03.345Z,67.86
2022-08-08T03:10:03.327Z,64.04
2022-08-08T03:11:03.316Z,66.02
2022-08-08T03:12:06.053Z,66.31
2022-08-08T03:13:07.398Z,67.06
2022-08-08T03:15:57.499Z,68.03
2022-08-08T03:15:59.071Z,66.41
2022-08-08T03:16:05.697Z,66.16
2022-08-08T03:17:04.258Z,65.78
2022-08-08T03:18:06.550Z,68.01
2022-08-08T03:19:03.274Z,67.37
2022-08-08T03:20:03.519Z,66.12
2022-08-08T03:21:09.729Z,68.20
2022-08-08T03:22:04.203Z,66.39
2022-08-08T03:23:04.879Z,66.94
2022-08-08T03:24:03.183Z,65.62
2022-08-08T03:25:03.193Z,67.75
2022-08-08T03:26:04.170Z,67.15
2022-08-08T03:27:03.168Z,68.12
2022-08-08T03:28:03.149Z,67.61
2022-08-08T03:29:03.318Z,67.58
2022-08-08T03:30:03.144Z,68.62
2022-08-08T03:31:22.723Z,66.13
2022-08-08T03:32:05.846Z,69.24
2022-08-08T03:33:07.518Z,63.59
2022-08-08T03:34:03.109Z,68.17
2022-08-08T03:35:03.120Z,68.94
2022-08-08T03:36:03.534Z,68.35
2022-08-08T03:37:10.745Z,69.40
2022-08-08T03:38:57.107Z,68.96
2022-08-08T03:39:14.816Z,67.58
2022-08-08T03:40:04.301Z,70.00
2022-08-08T03:41:08.865Z,69.15
2022-08-08T03:42:26.668Z,69.35
2022-08-08T03:43:15.700Z,68.82
2022-08-08T03:44:04.005Z,70.53
2022-08-08T03:46:06.326Z,67.93
2022-08-08T03:46:08.688Z,66.35
2022-08-08T03:47:19.278Z,68.58
2022-08-08T03:48:03.957Z,66.95
2022-08-08T03:49:30.074Z,68.78
2022-08-08T03:50:03.935Z,67.80
2022-08-08T03:51:02.943Z,66.85
2022-08-08T03:52:02.915Z,67.08
2022-08-08T03:53:02.908Z,66.52
2022-08-08T03:54:02.901Z,68.83
2022-08-08T03:55:10.353Z,69.43
2022-08-08T03:56:04.977Z,69.59
2022-08-08T03:58:33.740Z,69.68
2022-08-08T03:58:34.049Z,69.61
2022-08-08T03:59:03.853Z,67.08
2022-08-08T04:00:11.290Z,69.10
2022-08-08T04:01:24.303Z,69.63
2022-08-08T04:02:15.940Z,69.84
2022-08-08T04:03:04.256Z,66.51
2022-08-08T04:04:02.866Z,69.25
2022-08-08T04:05:02.792Z,68.17
2022-08-08T04:06:03.004Z,66.12
2022-08-08T04:07:02.788Z,68.63
2022-08-08T04:08:02.761Z,67.28
2022-08-08T04:09:06.981Z,68.87
2022-08-08T04:10:05.269Z,67.17
2022-08-08T04:11:02.733Z,68.82
2022-08-08T04:12:03.740Z,67.87
2022-08-08T04:13:03.912Z,68.60
2022-08-08T04:14:34.836Z,68.21
2022-08-08T04:15:03.693Z,68.86
2022-08-08T04:16:04.005Z,69.50
2022-08-08T04:17:02.692Z,69.33
2022-08-08T04:18:02.669Z,68.66
2022-08-08T04:19:02.661Z,69.37
2022-08-08T04:20:04.659Z,69.45
2022-08-08T04:21:02.638Z,70.79
2022-08-08T04:22:02.642Z,70.70
2022-08-08T04:24:11.683Z,66.68
2022-08-08T04:24:19.054Z,69.94
2022-08-08T04:25:03.597Z,68.95
2022-08-08T04:26:09.113Z,70.03
2022-08-08T04:27:10.509Z,69.47
2022-08-08T04:28:35.614Z,68.12
2022-08-08T04:29:04.559Z,67.68
2022-08-08T04:30:17.927Z,71.45
2022-08-08T04:31:04.731Z,70.71
2022-08-08T04:32:02.559Z,69.63
2022-08-08T04:33:02.521Z,67.49
2022-08-08T04:34:02.512Z,71.75
2022-08-08T04:35:02.499Z,70.09
2022-08-08T04:36:02.494Z,70.34
2022-08-08T04:37:03.845Z,69.86
2022-08-08T04:38:02.478Z,67.43
2022-08-08T04:40:03.307Z,68.92
2022-08-08T04:40:07.923Z,67.64
2022-08-08T04:41:03.505Z,69.49
2022-08-08T04:42:02.437Z,70.40
2022-08-08T04:43:02.449Z,69.03
2022-08-08T04:44:02.414Z,65.42
2022-08-08T04:45:02.408Z,66.65
2022-08-08T04:46:02.397Z,69.69
2022-08-08T04:47:02.384Z,70.29
2022-08-08T04:48:02.397Z,70.36
2022-08-08T04:49:02.366Z,68.17
2022-08-08T04:50:04.874Z,68.48
2022-08-08T04:51:02.346Z,66.98
2022-08-08T04:52:02.339Z,69.91
2022-08-08T04:53:13.686Z,69.40
2022-08-08T04:54:39.035Z,66.57
2022-08-08T04:55:04.388Z,68.06
2022-08-08T04:56:02.298Z,69.90
2022-08-08T04:57:02.294Z,67.39
2022-08-08T04:58:02.310Z,66.21
2022-08-08T04:59:02.269Z,68.51
2022-08-08T05:00:02.568Z,67.84
2022-08-08T05:01:09.049Z,68.91
2022-08-08T05:02:03.322Z,65.61
2022-08-08T05:03:02.232Z,67.32
2022-08-08T05:04:11.081Z,68.74
2022-08-08T05:05:03.211Z,67.32
2022-08-08T05:06:02.206Z,68.54
2022-08-08T05:07:03.191Z,67.77
2022-08-08T05:08:02.789Z,68.58
2022-08-08T05:09:05.960Z,66.75
2022-08-08T05:10:02.164Z,69.64
2022-08-08T05:11:02.152Z,68.56
2022-08-08T05:12:02.141Z,67.65
2022-08-08T05:13:02.925Z,69.75
2022-08-08T05:14:02.381Z,70.11
2022-08-08T05:15:04.353Z,67.90
2022-08-08T05:16:47.687Z,69.85
2022-08-08T05:17:08.724Z,67.42
2022-08-08T05:18:03.093Z,67.18
2022-08-08T05:19:02.132Z,67.68
2022-08-08T05:20:09.082Z,68.32
2022-08-08T05:21:05.905Z,69.61
2022-08-08T05:22:02.057Z,67.52
2022-08-08T05:23:02.044Z,67.27
2022-08-08T05:24:08.513Z,68.20
2022-08-08T05:25:04.040Z,66.16
2022-08-08T05:26:02.005Z,66.63
2022-08-08T05:27:01.995Z,67.99
2022-08-08T05:28:01.987Z,67.63
2022-08-08T05:29:06.047Z,68.89
2022-08-08T05:30:01.980Z,67.59
2022-08-08T05:31:02.057Z,67.77
2022-08-08T05:32:06.116Z,68.12
2022-08-08T05:33:03.277Z,70.25
2022-08-08T05:34:01.928Z,67.77
2022-08-08T05:35:05.310Z,67.95
2022-08-08T05:36:01.911Z,67.01
2022-08-08T05:37:01.896Z,66.89
2022-08-08T05:38:02.887Z,65.43
2022-08-08T05:39:01.932Z,65.76
2022-08-08T05:40:01.883Z,67.36
2022-08-08T05:41:01.867Z,67.79
2022-08-08T05:42:01.852Z,66.82
2022-08-08T05:43:01.844Z,66.57
2022-08-08T05:44:03.946Z,66.22
2022-08-08T05:45:10.326Z,67.03
2022-08-08T05:46:03.216Z,66.03
2022-08-08T05:47:02.635Z,67.48
2022-08-08T05:48:08.943Z,66.57
2022-08-08T05:49:04.543Z,66.86
2022-08-08T05:50:02.791Z,67.57
2022-08-08T05:51:15.329Z,67.10
2022-08-08T05:52:02.759Z,68.43
2022-08-08T05:53:54.363Z,66.82
2022-08-08T05:54:28.687Z,67.13
2022-08-08T05:55:07.498Z,66.22
2022-08-08T05:56:07.588Z,68.05
2022-08-08T05:57:04.775Z,67.41
2022-08-08T05:58:05.387Z,67.12
2022-08-08T05:59:03.728Z,68.09
2022-08-08T06:00:22.955Z,64.98
2022-08-08T06:01:05.006Z,66.78
2022-08-08T06:02:01.662Z,68.08
2022-08-08T06:03:01.648Z,64.90
2022-08-08T06:04:06.246Z,65.51
2022-08-08T06:05:06.928Z,67.88
2022-08-08T06:06:06.133Z,66.59
2022-08-08T06:07:01.982Z,66.55
2022-08-08T06:08:02.383Z,67.73
2022-08-08T06:09:58.448Z,67.13
2022-08-08T06:10:02.661Z,66.48
2022-08-08T06:11:02.574Z,67.16
2022-08-08T06:12:01.570Z,65.02
2022-08-08T06:13:01.623Z,64.53
2022-08-08T06:14:01.544Z,66.09
2022-08-08T06:15:02.754Z,66.27
2022-08-08T06:16:01.545Z,67.12
2022-08-08T06:17:01.514Z,64.45
2022-08-08T06:18:20.628Z,64.10
2022-08-08T06:19:03.909Z,65.14
2022-08-08T06:20:01.488Z,64.63
2022-08-08T06:21:03.668Z,65.35
2022-08-08T06:22:32.043Z,64.34
2022-08-08T06:23:02.483Z,64.30
2022-08-08T06:24:03.507Z,64.74
2022-08-08T06:25:01.481Z,65.76
2022-08-08T06:26:43.997Z,65.93
2022-08-08T06:27:02.496Z,64.00
2022-08-08T06:28:01.411Z,64.88
2022-08-08T06:29:02.405Z,63.95
2022-08-08T06:30:02.222Z,62.24
2022-08-08T06:31:02.404Z,62.55
2022-08-08T06:32:10.298Z,63.73
2022-08-08T06:33:02.393Z,64.71
2022-08-08T06:34:27.325Z,65.84
2022-08-08T06:36:03.964Z,65.29
2022-08-08T06:36:06.772Z,63.55
2022-08-08T06:37:02.331Z,63.65
2022-08-08T06:38:02.326Z,64.52
2022-08-08T06:39:01.330Z,63.98
2022-08-08T06:40:02.327Z,63.66
2022-08-08T06:41:01.305Z,62.73
2022-08-08T06:42:02.702Z,63.58
2022-08-08T06:43:01.295Z,64.06
2022-08-08T06:44:01.259Z,64.35
2022-08-08T06:45:01.246Z,66.00
2022-08-08T06:46:01.283Z,64.21
2022-08-08T06:47:01.720Z,64.07
2022-08-08T06:48:04.360Z,65.32
2022-08-08T06:49:01.211Z,67.76
2022-08-08T06:50:04.273Z,66.09
2022-08-08T06:51:06.897Z,64.70
2022-08-08T06:52:03.185Z,65.48
2022-08-08T06:53:01.179Z,66.04
2022-08-08T06:54:02.165Z,66.72
2022-08-08T06:55:01.156Z,65.09
2022-08-08T06:56:03.318Z,65.33
2022-08-08T06:57:01.156Z,65.74
2022-08-08T06:58:04.104Z,65.64
2022-08-08T06:59:02.115Z,66.24
2022-08-08T07:00:12.392Z,68.42
2022-08-08T07:01:02.102Z,66.35
2022-08-08T07:02:26.874Z,68.63
2022-08-08T07:03:04.765Z,73.54
2022-08-08T07:04:35.555Z,81.43
2022-08-08T07:05:02.080Z,70.87
2022-08-08T07:06:01.969Z,69.90
2022-08-08T07:07:01.053Z,67.73
2022-08-08T07:08:04.548Z,67.65
2022-08-08T07:09:01.149Z,66.06
2022-08-08T07:10:01.091Z,68.30
2022-08-08T07:11:00.999Z,69.78
2022-08-08T07:12:01.007Z,68.61
2022-08-08T07:13:00.984Z,67.56
2022-08-08T07:14:01.687Z,67.96
2022-08-08T07:15:00.982Z,67.21
2022-08-08T07:16:04.515Z,66.04
2022-08-08T07:17:01.960Z,66.32
2022-08-08T07:18:34.634Z,66.56
2022-08-08T07:19:01.922Z,67.13
2022-08-08T07:20:00.908Z,65.72
2022-08-08T07:21:02.160Z,65.48
2022-08-08T07:22:05.505Z,66.35
2022-08-08T07:23:02.883Z,67.21
2022-08-08T07:24:03.111Z,67.57
2022-08-08T07:25:00.861Z,68.32
2022-08-08T07:26:00.854Z,65.78
2022-08-08T07:27:05.622Z,66.61
2022-08-08T07:28:02.654Z,66.83
2022-08-08T07:29:05.964Z,67.43
2022-08-08T07:30:08.303Z,66.28
2022-08-08T07:31:02.803Z,66.47
2022-08-08T07:32:00.796Z,68.54
2022-08-08T07:33:00.941Z,67.91
2022-08-08T07:34:00.777Z,64.22
2022-08-08T07:35:02.773Z,65.39
2022-08-08T07:36:00.752Z,67.49
2022-08-08T07:37:00.763Z,67.15
2022-08-08T07:38:10.208Z,67.03
2022-08-08T07:39:01.813Z,68.15
2022-08-08T07:40:01.927Z,67.71
2022-08-08T07:41:04.540Z,68.64
2022-08-08T07:42:04.562Z,63.81
2022-08-08T07:43:00.700Z,67.58
2022-08-08T07:44:00.679Z,67.08
2022-08-08T07:45:00.670Z,65.36
2022-08-08T07:46:17.373Z,65.90
2022-08-08T07:47:01.651Z,68.71
2022-08-08T07:48:00.670Z,68.19
2022-08-08T07:49:00.634Z,68.48
2022-08-08T07:50:00.619Z,69.63
2022-08-08T07:51:00.630Z,67.69
2022-08-08T07:52:00.627Z,65.17
2022-08-08T07:53:00.630Z,67.84
2022-08-08T07:54:03.249Z,67.38
2022-08-08T07:55:00.575Z,66.43
2022-08-08T07:56:00.568Z,66.88
2022-08-08T07:57:01.889Z,65.36
2022-08-08T07:58:00.539Z,68.29
2022-08-08T07:59:00.547Z,67.86
2022-08-08T08:00:00.524Z,68.15
2022-08-08T08:01:00.564Z,66.65
2022-08-08T08:02:35.041Z,67.70
2022-08-08T08:03:01.594Z,68.78
2022-08-08T08:04:00.499Z,68.31
2022-08-08T08:05:00.472Z,67.45
2022-08-08T08:06:00.462Z,67.48
2022-08-08T08:07:00.450Z,65.80
2022-08-08T08:08:00.442Z,66.10
2022-08-08T08:09:00.459Z,66.53
2022-08-08T08:10:00.422Z,66.42
2022-08-08T08:11:00.416Z,67.03
2022-08-08T08:12:00.399Z,65.99
2022-08-08T08:13:00.392Z,66.44
2022-08-08T08:14:08.402Z,66.09
2022-08-08T08:15:03.014Z,67.75
2022-08-08T08:16:00.367Z,66.12
2022-08-08T08:17:00.353Z,68.81
2022-08-08T08:18:00.346Z,69.45
2022-08-08T08:19:00.337Z,65.49
2022-08-08T08:20:00.340Z,67.51
2022-08-08T08:21:00.316Z,67.63
2022-08-08T08:22:00.863Z,68.64
2022-08-08T08:23:00.300Z,66.08
2022-08-08T08:24:03.053Z,67.39
2022-08-08T08:25:07.658Z,65.79
2022-08-08T08:26:01.269Z,67.00
2022-08-08T08:27:02.546Z,68.82
2022-08-08T08:28:00.250Z,67.87
2022-08-08T08:29:00.243Z,66.39
2022-08-08T08:30:00.241Z,68.24
2022-08-08T08:31:00.221Z,67.47
2022-08-08T08:32:05.336Z,66.24
2022-08-08T08:33:01.221Z,66.51
2022-08-08T08:34:00.191Z,66.97
2022-08-08T08:35:00.199Z,66.70
2022-08-08T08:36:18.587Z,67.99
2022-08-08T08:37:07.479Z,65.34
2022-08-08T08:38:17.811Z,69.36
2022-08-08T08:39:02.190Z,67.12
2022-08-08T08:40:03.049Z,67.77
2022-08-08T08:41:00.126Z,68.11
2022-08-08T08:42:00.106Z,69.19
2022-08-08T08:43:01.110Z,68.24
2022-08-08T08:44:14.130Z,65.80
2022-08-08T08:45:01.096Z,65.80
2022-08-08T08:46:03.605Z,67.41
2022-08-08T08:47:01.067Z,67.97
2022-08-08T08:48:01.128Z,65.59
2022-08-08T08:49:00.051Z,66.47
2022-08-08T08:50:00.082Z,64.94
2022-08-08T08:51:00.026Z,68.11
2022-08-08T08:52:00.550Z,68.65
2022-08-08T08:53:04.714Z,67.78
2022-08-08T08:54:01.345Z,66.94
2022-08-08T08:55:00.025Z,66.96
2022-08-08T08:56:01.466Z,67.30
2022-08-08T08:56:59.979Z,64.37
2022-08-08T08:57:59.959Z,64.78
2022-08-08T08:59:01.459Z,66.56
2022-08-08T09:00:04.919Z,67.18
2022-08-08T09:01:10.230Z,65.34
2022-08-08T09:02:01.952Z,65.33
2022-08-08T09:02:59.913Z,65.55
2022-08-08T09:03:59.900Z,67.62
2022-08-08T09:04:59.889Z,64.71
2022-08-08T09:05:59.906Z,64.81
2022-08-08T09:06:59.872Z,66.77
2022-08-08T09:08:18.198Z,66.16
2022-08-08T09:09:00.856Z,67.06
2022-08-08T09:09:59.840Z,64.69
2022-08-08T09:10:59.843Z,65.21
2022-08-08T09:12:01.970Z,66.81
2022-08-08T09:13:00.809Z,66.04
2022-08-08T09:13:59.798Z,66.59
2022-08-08T09:14:59.793Z,68.52
2022-08-08T09:16:03.873Z,66.87
2022-08-08T09:16:59.769Z,66.26
2022-08-08T09:17:59.981Z,65.41
2022-08-08T09:18:59.744Z,67.56
2022-08-08T09:22:00.861Z,65.60
2022-08-08T09:22:02.630Z,67.47
2022-08-08T09:22:06.177Z,65.41
2022-08-08T09:23:01.712Z,68.58
2022-08-08T09:23:59.698Z,64.74
2022-08-08T09:24:59.686Z,64.41
2022-08-08T09:26:03.080Z,67.49
2022-08-08T09:26:59.671Z,67.73
2022-08-08T09:28:00.170Z,66.80
2022-08-08T09:28:59.657Z,66.88
2022-08-08T09:29:59.646Z,67.03
2022-08-08T09:30:59.663Z,66.71
2022-08-08T09:32:01.621Z,64.20
2022-08-08T09:33:12.183Z,65.60
2022-08-08T09:34:31.299Z,66.50
2022-08-08T09:35:04.060Z,67.28
2022-08-08T09:36:00.631Z,64.90
2022-08-08T09:37:57.906Z,65.34
2022-08-08T09:38:02.472Z,64.35
2022-08-08T09:39:00.594Z,64.67
2022-08-08T09:39:59.609Z,64.17
2022-08-08T09:40:59.541Z,65.22
2022-08-08T09:42:20.794Z,65.00
2022-08-08T09:43:00.526Z,65.95
2022-08-08T09:44:06.774Z,66.59
2022-08-08T09:45:04.165Z,67.15
2022-08-08T09:46:02.680Z,68.19
2022-08-08T09:47:05.583Z,67.04
2022-08-08T09:48:04.378Z,66.24
2022-08-08T09:49:18.190Z,65.70
2022-08-08T09:50:03.439Z,65.01
2022-08-08T09:51:00.470Z,64.39
2022-08-08T09:52:06.553Z,62.36
2022-08-08T09:53:02.217Z,64.10
2022-08-08T09:54:09.634Z,63.91
2022-08-08T09:55:01.415Z,66.93
2022-08-08T09:56:04.600Z,65.81
2022-08-08T09:57:00.436Z,67.47
2022-08-08T09:57:59.396Z,67.51
2022-08-08T09:58:59.371Z,69.06
2022-08-08T10:00:31.522Z,67.90
2022-08-08T10:01:01.354Z,65.51
2022-08-08T10:02:03.057Z,66.13
2022-08-08T10:03:01.349Z,63.02
2022-08-08T10:04:01.871Z,64.94
2022-08-08T10:05:00.386Z,63.21
2022-08-08T10:06:00.389Z,65.68
2022-08-08T10:06:59.298Z,65.83
2022-08-08T10:08:00.391Z,68.56
2022-08-08T10:08:59.965Z,67.42
2022-08-08T10:10:01.677Z,63.76
2022-08-08T10:10:59.271Z,66.34
2022-08-08T10:12:27.698Z,66.16
2022-08-08T10:13:14.296Z,65.87
2022-08-08T10:14:01.234Z,66.98
2022-08-08T10:15:00.237Z,64.07
2022-08-08T10:16:00.853Z,63.92
2022-08-08T10:16:59.213Z,62.01
2022-08-08T10:18:09.039Z,62.76
2022-08-08T10:19:00.187Z,61.96
2022-08-08T10:20:00.107Z,61.98
2022-08-08T10:21:03.575Z,62.99
2022-08-08T10:22:00.153Z,63.66
2022-08-08T10:23:41.198Z,63.51
2022-08-08T10:24:00.174Z,63.65
2022-08-08T10:25:01.326Z,64.38
2022-08-08T10:25:59.118Z,64.25
2022-08-08T10:27:00.101Z,64.70
2022-08-08T10:27:59.125Z,62.48
2022-08-08T10:28:59.087Z,63.60
2022-08-08T10:29:59.934Z,62.35
2022-08-08T10:31:01.062Z,62.35
2022-08-08T10:31:59.058Z,63.47
2022-08-08T10:33:00.203Z,62.74
2022-08-08T10:34:19.616Z,63.02
2022-08-08T10:35:01.247Z,64.68
2022-08-08T10:36:09.784Z,66.30
2022-08-08T10:37:00.148Z,64.82
2022-08-08T10:37:59.016Z,66.14
2022-08-08T10:38:58.992Z,65.71
2022-08-08T10:39:59.037Z,67.25
2022-08-08T10:40:58.976Z,67.44
2022-08-08T10:42:16.852Z,66.17
2022-08-08T10:42:59.976Z,68.76
2022-08-08T10:43:58.948Z,65.31
2022-08-08T10:44:58.934Z,66.21
2022-08-08T10:45:59.011Z,66.04
2022-08-08T10:46:58.918Z,67.19
2022-08-08T10:47:58.925Z,63.68
2022-08-08T10:48:59.442Z,65.47
2022-08-08T10:50:01.659Z,67.39
2022-08-08T10:50:58.901Z,68.38
2022-08-08T10:51:58.876Z,66.51
2022-08-08T10:52:58.881Z,64.61
2022-08-08T10:54:00.186Z,65.74
2022-08-08T10:54:59.844Z,64.78
2022-08-08T10:55:59.835Z,64.60
2022-08-08T10:56:58.827Z,64.31
2022-08-08T10:57:58.847Z,62.62
2022-08-08T10:58:58.807Z,62.07
2022-08-08T10:59:58.796Z,62.67
2022-08-08T11:01:02.864Z,61.68
2022-08-08T11:01:59.877Z,63.50
2022-08-08T11:02:58.804Z,64.00
2022-08-08T11:04:01.926Z,66.77
2022-08-08T11:04:58.750Z,68.38
2022-08-08T11:06:00.449Z,65.80
2022-08-08T11:06:58.733Z,67.31
2022-08-08T11:08:39.085Z,65.65
2022-08-08T11:08:59.726Z,64.66
2022-08-08T11:09:58.738Z,67.13
2022-08-08T11:10:58.694Z,67.16
2022-08-08T11:12:12.840Z,63.62
2022-08-08T11:13:27.948Z,65.14
2022-08-08T11:14:01.046Z,66.18
2022-08-08T11:14:58.670Z,66.39
2022-08-08T11:16:00.608Z,67.47
2022-08-08T11:16:59.634Z,66.14
2022-08-08T11:18:02.126Z,67.29
2022-08-08T11:18:58.628Z,69.61
2022-08-08T11:19:58.695Z,67.44
2022-08-08T11:20:58.590Z,67.86
2022-08-08T11:21:58.584Z,66.92
2022-08-08T11:22:59.150Z,65.50
2022-08-08T11:24:01.616Z,64.43
2022-08-08T11:24:58.556Z,65.11
2022-08-08T11:25:58.670Z,63.39
2022-08-08T11:26:58.554Z,66.28
2022-08-08T11:27:58.528Z,65.01
2022-08-08T11:28:58.573Z,64.25
2022-08-08T11:30:20.183Z,63.52
2022-08-08T11:30:59.690Z,63.69
2022-08-08T11:31:58.489Z,61.83
2022-08-08T11:32:58.470Z,60.40
2022-08-08T11:34:03.280Z,62.77
2022-08-08T11:35:10.556Z,64.17
2022-08-08T11:36:00.456Z,62.57
2022-08-08T11:36:58.716Z,62.55
2022-08-08T11:38:39.037Z,61.94
2022-08-08T11:38:59.456Z,64.12
2022-08-08T11:39:58.470Z,65.70
2022-08-08T11:40:58.405Z,66.61
2022-08-08T11:41:58.398Z,66.80
2022-08-08T11:42:58.389Z,64.24
2022-08-08T11:43:58.422Z,65.19
2022-08-08T11:44:58.383Z,65.65
2022-08-08T11:46:11.819Z,64.24
2022-08-08T11:47:00.351Z,65.66
2022-08-08T11:48:04.424Z,64.96
2022-08-08T11:48:59.330Z,65.28
2022-08-08T11:49:58.376Z,63.40
2022-08-08T11:50:58.314Z,62.83
2022-08-08T11:51:58.304Z,61.53
2022-08-08T11:52:58.294Z,65.62
2022-08-08T11:54:01.150Z,63.61
2022-08-08T11:54:58.308Z,66.32
2022-08-08T11:55:58.265Z,63.68
2022-08-08T11:56:58.527Z,62.37
2022-08-08T11:58:00.896Z,62.84
2022-08-08T11:59:00.236Z,63.54
2022-08-08T12:00:02.464Z,63.46
2022-08-08T12:00:59.868Z,66.29
2022-08-08T12:02:21.315Z,63.45
2022-08-08T12:03:00.262Z,65.85
2022-08-08T12:03:59.739Z,67.14
2022-08-08T12:04:59.231Z,65.31
2022-08-08T12:05:58.184Z,65.63
2022-08-08T12:06:58.163Z,64.04
2022-08-08T12:07:58.171Z,65.07
2022-08-08T12:08:58.145Z,65.10
2022-08-08T12:10:00.407Z,64.17
2022-08-08T12:10:58.143Z,64.44
2022-08-08T12:11:58.119Z,67.28
2022-08-08T12:12:58.115Z,63.74
2022-08-08T12:14:02.801Z,66.22
2022-08-08T12:14:59.092Z,64.77
2022-08-08T12:15:58.097Z,64.38
2022-08-08T12:16:58.075Z,62.28
2022-08-08T12:17:58.062Z,64.98
2022-08-08T12:18:58.068Z,64.77
2022-08-08T12:19:58.042Z,62.07
2022-08-08T12:20:58.909Z,64.28
2022-08-08T12:21:59.719Z,63.15
2022-08-08T12:22:59.012Z,63.08
2022-08-08T12:23:59.674Z,62.04
2022-08-08T12:24:57.988Z,63.50
2022-08-08T12:25:58.023Z,62.82
2022-08-08T12:26:58.562Z,63.90
2022-08-08T12:27:59.159Z,63.55
2022-08-08T12:28:58.316Z,63.97
2022-08-08T12:29:57.945Z,64.58
2022-08-08T12:30:57.942Z,64.56
2022-08-08T12:31:57.946Z,63.35
2022-08-08T12:32:57.919Z,61.97
2022-08-08T12:34:02.863Z,65.29
2022-08-08T12:35:17.447Z,65.70
2022-08-08T12:35:59.889Z,65.68
2022-08-08T12:36:57.899Z,65.63
2022-08-08T12:38:01.349Z,67.66
2022-08-08T12:38:57.862Z,66.10
2022-08-08T12:40:01.871Z,65.25
2022-08-08T12:41:00.944Z,65.81
2022-08-08T12:42:01.780Z,67.48
2022-08-08T12:42:58.821Z,68.56
2022-08-08T12:44:00.110Z,68.85
2022-08-08T12:44:57.802Z,67.51
2022-08-08T12:46:03.022Z,65.89
2022-08-08T12:47:01.179Z,66.16
2022-08-08T12:48:05.016Z,66.04
2022-08-08T12:49:25.112Z,62.90
2022-08-08T12:49:59.756Z,67.52
2022-08-08T12:50:58.404Z,67.08
2022-08-08T12:52:00.261Z,65.73